createdAt,value
2023-02-06T00:02:24.321Z,104082.09
2023-02-06T00:04:56.301Z,104078.09
2023-02-06T00:07:29.816Z,104079.91
2023-02-06T00:10:01.712Z,104089.41
2023-02-06T00:12:33.698Z,104102.28
2023-02-06T00:15:06.105Z,104081.31
2023-02-06T00:17:39.293Z,104105.59
2023-02-06T00:20:12.252Z,104102.25
2023-02-06T00:22:44.653Z,104092.72
2023-02-06T00:25:16.709Z,104079.50
2023-02-06T00:27:48.680Z,104070.19
2023-02-06T00:30:20.878Z,104075.50
2023-02-06T00:32:52.982Z,104083.47
2023-02-06T00:35:25.070Z,104077.00
2023-02-06T00:37:57.041Z,104079.47
2023-02-06T00:40:29.515Z,104080.81
2023-02-06T00:43:01.547Z,104068.63
2023-02-06T00:45:33.983Z,104080.19
2023-02-06T00:48:06.497Z,104068.63
2023-02-06T00:50:38.731Z,104067.97
2023-02-06T00:53:10.743Z,104064.53
2023-02-06T00:55:42.793Z,104070.69
2023-02-06T00:58:14.768Z,104067.00
2023-02-06T01:00:46.748Z,104064.09
2023-02-06T01:03:18.717Z,104066.31
2023-02-06T01:05:50.749Z,104064.19
2023-02-06T01:08:22.833Z,104079.75
2023-02-06T01:10:54.795Z,104083.69
2023-02-06T01:13:26.799Z,104092.41
2023-02-06T01:15:58.755Z,104071.31
2023-02-06T01:18:30.712Z,104092.19
2023-02-06T01:21:07.037Z,104094.38
2023-02-06T01:23:40.593Z,104101.28
2023-02-06T01:26:15.295Z,104082.31
2023-02-06T01:28:48.977Z,104094.47
2023-02-06T01:31:26.021Z,104095.41
2023-02-06T01:34:00.711Z,104092.47
2023-02-06T01:36:32.675Z,104089.53
2023-02-06T01:39:06.943Z,104077.19
2023-02-06T01:41:39.030Z,104085.00
2023-02-06T01:44:22.545Z,104092.66
2023-02-06T01:46:57.334Z,104093.25
2023-02-06T01:49:39.682Z,104089.53
2023-02-06T01:52:22.730Z,104097.34
2023-02-06T01:55:01.070Z,104073.16
2023-02-06T01:57:34.871Z,104094.06
2023-02-06T02:00:10.980Z,104096.69
2023-02-06T02:02:48.416Z,104094.69
2023-02-06T02:05:20.740Z,104100.31
2023-02-06T02:08:03.701Z,104099.72
2023-02-06T02:10:35.899Z,104101.22
2023-02-06T02:13:07.832Z,104088.63
2023-02-06T02:16:26.473Z,104095.78
2023-02-06T02:19:32.067Z,104093.16
2023-02-06T02:22:55.490Z,104092.84
2023-02-06T02:25:59.950Z,104092.84
2023-02-06T02:28:37.755Z,104088.69
2023-02-06T02:32:07.176Z,104097.25
2023-02-06T02:35:09.340Z,104083.81
2023-02-06T02:38:05.680Z,104075.44
2023-02-06T02:41:03.731Z,104079.72
2023-02-06T02:43:42.925Z,104065.56
2023-02-06T02:46:22.740Z,104068.69
2023-02-06T02:49:03.724Z,104064.91
2023-02-06T02:51:39.032Z,104053.09
2023-02-06T02:54:11.087Z,104054.38
2023-02-06T02:56:43.513Z,104048.69
2023-02-06T02:59:27.416Z,104057.16
2023-02-06T03:02:10.009Z,104060.50
2023-02-06T03:04:56.597Z,104057.91
2023-02-06T03:08:03.823Z,104060.50
2023-02-06T03:11:02.942Z,104061.78
2023-02-06T03:14:02.991Z,104045.78
2023-02-06T03:17:04.788Z,104051.94
2023-02-06T03:19:49.386Z,104035.78
2023-02-06T03:22:24.859Z,104035.13
2023-02-06T03:24:58.572Z,104040.25
2023-02-06T03:27:32.654Z,104045.19
2023-02-06T03:30:09.123Z,104047.06
2023-02-06T03:32:47.240Z,104041.25
2023-02-06T03:35:26.862Z,104048.00
2023-02-06T03:37:59.082Z,104037.22
2023-02-06T03:40:31.812Z,104048.31
2023-02-06T03:43:05.899Z,104018.13
2023-02-06T03:45:43.416Z,104033.59
2023-02-06T03:48:30.027Z,104031.75
2023-02-06T03:51:08.142Z,104040.66
2023-02-06T03:53:45.579Z,104035.44
2023-02-06T03:56:31.486Z,104029.91
2023-02-06T03:59:03.844Z,104031.75
2023-02-06T04:01:45.864Z,104035.44
2023-02-06T04:04:21.475Z,104042.16
2023-02-06T04:06:53.411Z,104033.41
2023-02-06T04:09:25.379Z,104024.69
2023-02-06T04:11:57.316Z,104033.00
2023-02-06T04:14:29.210Z,104035.78
2023-02-06T04:17:01.160Z,104024.09
2023-02-06T04:19:33.660Z,104038.06
2023-02-06T04:22:06.963Z,104054.78
2023-02-06T04:24:40.337Z,104049.38
2023-02-06T04:27:14.847Z,104036.63
2023-02-06T04:29:46.853Z,104042.16
2023-02-06T04:32:18.735Z,104039.97
2023-02-06T04:34:50.677Z,104027.97
2023-02-06T04:37:22.637Z,104016.59
2023-02-06T04:39:54.572Z,104024.00
2023-02-06T04:42:26.648Z,104035.97
2023-02-06T04:44:58.592Z,104025.34
2023-02-06T04:47:30.533Z,104023.34
2023-02-06T04:50:04.073Z,104008.47
2023-02-06T04:52:36.347Z,104015.63
2023-02-06T04:55:09.725Z,104018.66
2023-02-06T04:57:42.173Z,104034.28
2023-02-06T05:00:15.221Z,104027.06
2023-02-06T05:02:47.129Z,104016.72
2023-02-06T05:05:19.252Z,104040.28
2023-02-06T05:07:51.219Z,104025.91
2023-02-06T05:10:23.280Z,104046.16
2023-02-06T05:12:56.154Z,104041.19
2023-02-06T05:15:28.115Z,104042.72
2023-02-06T05:18:00.042Z,104034.91
2023-02-06T05:20:32.045Z,104021.78
2023-02-06T05:23:04.229Z,104039.00
2023-02-06T05:25:37.788Z,104039.00
2023-02-06T05:28:10.012Z,104040.88
2023-02-06T05:30:42.301Z,104047.59
2023-02-06T05:33:14.332Z,104048.16
2023-02-06T05:35:46.510Z,104048.75
2023-02-06T05:38:19.457Z,104049.09
2023-02-06T05:40:52.163Z,104031.88
2023-02-06T05:43:24.537Z,104050.63
2023-02-06T05:45:56.429Z,104056.16
2023-02-06T05:48:30.555Z,104061.38
2023-02-06T05:51:02.531Z,104050.28
2023-02-06T05:53:34.581Z,104073.66
2023-02-06T05:56:07.030Z,104076.69
2023-02-06T05:58:39.018Z,104085.75
2023-02-06T06:01:13.072Z,104084.84
2023-02-06T06:03:45.034Z,104073.88
2023-02-06T06:06:17.043Z,104078.50
2023-02-06T06:08:48.945Z,104076.34
2023-02-06T06:11:20.891Z,104080.38
2023-02-06T06:13:52.807Z,104077.59
2023-02-06T06:16:25.222Z,104074.81
2023-02-06T06:18:57.245Z,104066.47
2023-02-06T06:21:29.641Z,104071.69
2023-02-06T06:24:02.471Z,104077.50
2023-02-06T06:26:34.399Z,104089.25
2023-02-06T06:29:06.501Z,104088.72
2023-02-06T06:31:38.556Z,104091.19
2023-02-06T06:34:11.163Z,104083.97
2023-02-06T06:36:43.163Z,104077.31
2023-02-06T06:39:15.117Z,104083.97
2023-02-06T06:41:47.127Z,104074.28
2023-02-06T06:44:19.103Z,104080.44
2023-02-06T06:46:51.038Z,104078.22
2023-02-06T06:49:22.959Z,104067.81
2023-02-06T06:51:54.939Z,104069.81
2023-02-06T06:54:26.970Z,104053.72
2023-02-06T06:56:58.914Z,104058.66
2023-02-06T06:59:30.867Z,104056.91
2023-02-06T07:02:03.160Z,104056.13
2023-02-06T07:04:35.119Z,104062.69
2023-02-06T07:07:08.030Z,104035.63
2023-02-06T07:09:40.068Z,104039.31
2023-02-06T07:12:12.079Z,104053.03
2023-02-06T07:14:44.098Z,104040.44
2023-02-06T07:17:16.012Z,104043.72
2023-02-06T07:19:49.297Z,104012.94
2023-02-06T07:22:21.688Z,104030.34
2023-02-06T07:24:54.583Z,104031.09
2023-02-06T07:27:26.550Z,104036.63
2023-02-06T07:29:59.809Z,103988.56
2023-02-06T07:32:35.023Z,104010.19
2023-02-06T07:35:07.979Z,104030.69
2023-02-06T07:37:39.882Z,104029.94
2023-02-06T07:40:12.800Z,104028.59
2023-02-06T07:42:44.758Z,104021.63
2023-02-06T07:45:16.912Z,104029.19
2023-02-06T07:47:48.857Z,104014.06
2023-02-06T07:50:20.939Z,104017.16
2023-02-06T07:52:52.835Z,104000.72
2023-02-06T07:55:25.112Z,104008.16
2023-02-06T07:57:57.126Z,104017.91
2023-02-06T08:00:29.393Z,104002.78
2023-02-06T08:03:01.392Z,104006.13
2023-02-06T08:05:34.241Z,104005.19
2023-02-06T08:08:07.669Z,103989.88
2023-02-06T08:10:40.080Z,103997.59
2023-02-06T08:13:11.994Z,103991.47
2023-02-06T08:15:45.089Z,103996.44
2023-02-06T08:18:17.104Z,103972.75
2023-02-06T08:20:49.122Z,103994.91
2023-02-06T08:23:21.049Z,103985.09
2023-02-06T08:25:52.997Z,103998.50
2023-02-06T08:28:25.544Z,104003.28
2023-02-06T08:30:58.231Z,104000.25
2023-02-06T08:33:30.292Z,104002.44
2023-02-06T08:36:04.422Z,103999.06
2023-02-06T08:38:37.317Z,104002.31
2023-02-06T08:41:28.412Z,104013.25
2023-02-06T08:44:03.353Z,104009.28
2023-02-06T08:46:35.845Z,104010.03
2023-02-06T08:49:14.616Z,104001.91
2023-02-06T08:51:49.346Z,103998.06
2023-02-06T08:54:24.125Z,103986.44
2023-02-06T08:57:01.077Z,103986.44
2023-02-06T08:59:34.142Z,103982.91
2023-02-06T09:02:08.559Z,103986.34
2023-02-06T09:04:42.678Z,103971.59
2023-02-06T09:07:17.147Z,103981.19
2023-02-06T09:09:49.278Z,103958.47
2023-02-06T09:12:21.728Z,103965.56
2023-02-06T09:14:53.741Z,103970.69
2023-02-06T09:17:25.800Z,103966.56
2023-02-06T09:20:01.753Z,103964.09
2023-02-06T09:22:35.896Z,103966.72
2023-02-06T09:25:08.298Z,103964.41
2023-02-06T09:27:40.386Z,103982.72
2023-02-06T09:30:14.759Z,103967.78
2023-02-06T09:32:46.713Z,103952.28
2023-02-06T09:35:18.723Z,103959.19
2023-02-06T09:37:50.600Z,103956.91
2023-02-06T09:40:28.067Z,103947.38
2023-02-06T09:43:03.224Z,103980.97
2023-02-06T09:45:35.641Z,103978.97
2023-02-06T09:48:32.612Z,103972.81
2023-02-06T09:51:48.335Z,103980.38
2023-02-06T09:55:20.171Z,103977.59
2023-02-06T09:58:22.395Z,103962.81
2023-02-06T10:01:12.332Z,103970.66
2023-02-06T10:04:15.885Z,103981.75
2023-02-06T10:07:32.258Z,103992.94
2023-02-06T10:10:19.996Z,103991.84
2023-02-06T10:13:25.381Z,103991.16
2023-02-06T10:16:31.085Z,103987.56
2023-02-06T10:19:16.694Z,103997.25
2023-02-06T10:22:06.761Z,103993.53
2023-02-06T10:25:13.575Z,103998.72
2023-02-06T10:27:51.214Z,103999.63
2023-02-06T10:30:44.135Z,103995.25
2023-02-06T10:33:41.222Z,103884.72
2023-02-06T10:36:50.105Z,103995.75
2023-02-06T10:39:54.701Z,103990.09
2023-02-06T10:42:53.858Z,103988.47
2023-02-06T10:45:43.698Z,103977.41
2023-02-06T10:48:33.031Z,103979.25
2023-02-06T10:51:28.103Z,103973.22
2023-02-06T10:54:31.821Z,103988.66
2023-02-06T10:57:14.245Z,103994.66
2023-02-06T10:59:53.707Z,103984.16
2023-02-06T11:03:06.277Z,103983.75
2023-02-06T11:05:39.457Z,103980.19
2023-02-06T11:08:27.917Z,103957.31
2023-02-06T11:11:33.461Z,103962.88
2023-02-06T11:14:19.701Z,103955.63
2023-02-06T11:16:52.236Z,103952.91
2023-02-06T11:19:38.459Z,103944.66
2023-02-06T11:22:13.523Z,103952.53
2023-02-06T11:25:22.262Z,103958.66
2023-02-06T11:27:56.841Z,103959.25
2023-02-06T11:30:37.992Z,103957.19
2023-02-06T11:33:40.854Z,103960.53
2023-02-06T11:36:36.296Z,103945.91
2023-02-06T11:39:26.805Z,103952.09
2023-02-06T11:42:20.914Z,103947.34
2023-02-06T11:44:53.855Z,103946.31
2023-02-06T11:47:38.009Z,103948.75
2023-02-06T11:50:13.147Z,103949.78
2023-02-06T11:52:47.213Z,103947.63
2023-02-06T11:55:34.590Z,103929.91
2023-02-06T11:58:25.135Z,103940.59
2023-02-06T12:01:05.392Z,103928.25
2023-02-06T12:03:57.474Z,103919.09
2023-02-06T12:06:38.507Z,103930.41
2023-02-06T12:09:13.326Z,103916.47
2023-02-06T12:12:04.494Z,103917.78
2023-02-06T12:14:54.009Z,103928.56
2023-02-06T12:17:35.894Z,103917.09
2023-02-06T12:20:54.627Z,103910.34
2023-02-06T12:23:36.305Z,103906.66
2023-02-06T12:26:14.834Z,103894.09
2023-02-06T12:28:57.376Z,103901.59
2023-02-06T12:31:44.252Z,103895.53
2023-02-06T12:34:28.808Z,103872.09
2023-02-06T12:37:21.505Z,103873.81
2023-02-06T12:39:56.500Z,103881.94
2023-02-06T12:42:47.471Z,103892.50
2023-02-06T12:45:31.811Z,103890.78
2023-02-06T12:48:21.739Z,103877.53
2023-02-06T12:51:18.348Z,103875.94
2023-02-06T12:54:04.669Z,103889.78
2023-02-06T12:56:50.912Z,103876.63
2023-02-06T13:00:30.663Z,103871.13
2023-02-06T13:03:22.692Z,103870.19
2023-02-06T13:06:33.092Z,103875.19
2023-02-06T13:09:07.926Z,103866.22
2023-02-06T13:11:42.597Z,103857.41
2023-02-06T13:14:28.736Z,103857.97
2023-02-06T13:17:17.703Z,103842.31
2023-02-06T13:20:17.254Z,103839.41
2023-02-06T13:23:06.751Z,103844.28
2023-02-06T13:25:38.886Z,103829.06
2023-02-06T13:28:22.851Z,103826.25
2023-02-06T13:31:22.226Z,103820.84
2023-02-06T13:33:59.267Z,103804.84
2023-02-06T13:36:49.244Z,103814.84
2023-02-06T13:39:32.394Z,103813.13
2023-02-06T13:42:59.121Z,103811.28
2023-02-06T13:45:42.648Z,103811.69
2023-02-06T13:48:35.915Z,103815.00
2023-02-06T13:51:39.411Z,103811.03
2023-02-06T13:54:30.696Z,103813.81
2023-02-06T13:57:16.574Z,103817.31
2023-02-06T13:59:58.423Z,103807.81
2023-02-06T14:02:44.920Z,103813.88
2023-02-06T14:05:22.756Z,103817.09
2023-02-06T14:08:43.042Z,103809.28
2023-02-06T14:11:33.426Z,103805.09
2023-02-06T14:14:56.128Z,103803.84
2023-02-06T14:17:46.533Z,103813.59
2023-02-06T14:20:58.299Z,103811.78
2023-02-06T14:23:37.273Z,103808.59
2023-02-06T14:27:05.760Z,103795.56
2023-02-06T14:30:05.373Z,103812.06
2023-02-06T14:32:59.279Z,103817.47
2023-02-06T14:36:00.621Z,103816.03
2023-02-06T14:38:53.577Z,103818.81
2023-02-06T14:41:30.875Z,103818.25
2023-02-06T14:44:03.125Z,103819.75
2023-02-06T14:46:35.288Z,103827.31
2023-02-06T14:49:16.508Z,103822.88
2023-02-06T14:51:51.461Z,103826.25
2023-02-06T14:54:38.304Z,103824.91
2023-02-06T14:57:31.143Z,103832.81
2023-02-06T15:00:20.122Z,103841.00
2023-02-06T15:03:21.307Z,103835.06
2023-02-06T15:06:16.275Z,103832.03
2023-02-06T15:08:51.024Z,103834.25
2023-02-06T15:11:32.318Z,103823.88
2023-02-06T15:14:20.748Z,103823.47
2023-02-06T15:16:53.109Z,103816.50
2023-02-06T15:19:32.656Z,103800.50
2023-02-06T15:22:15.812Z,103815.31
2023-02-06T15:25:02.897Z,103817.03
2023-02-06T15:27:38.174Z,103805.59
2023-02-06T15:30:23.718Z,103827.25
2023-02-06T15:32:56.248Z,103826.34
2023-02-06T15:35:49.064Z,103809.63
2023-02-06T15:38:24.594Z,103826.22
2023-02-06T15:41:02.414Z,103824.88
2023-02-06T15:43:35.962Z,103823.97
2023-02-06T15:46:09.588Z,103833.84
2023-02-06T15:48:54.015Z,103827.25
2023-02-06T15:51:41.052Z,103823.69
2023-02-06T15:54:15.928Z,103824.13
2023-02-06T15:57:31.511Z,103813.34
2023-02-06T16:00:09.685Z,103811.75
2023-02-06T16:02:42.023Z,103808.50
2023-02-06T16:05:34.121Z,103793.34
2023-02-06T16:08:20.663Z,103804.13
2023-02-06T16:11:31.664Z,103812.81
2023-02-06T16:14:04.128Z,103815.44
2023-02-06T16:16:36.203Z,103808.06
2023-02-06T16:19:37.344Z,103808.72
2023-02-06T16:22:19.163Z,103813.16
2023-02-06T16:24:55.507Z,103786.63
2023-02-06T16:27:28.327Z,103795.53
2023-02-06T16:30:00.480Z,103810.94
2023-02-06T16:32:32.824Z,103819.75
2023-02-06T16:35:05.093Z,103812.09
2023-02-06T16:37:37.031Z,103819.31
2023-02-06T16:40:12.432Z,103818.56
2023-02-06T16:42:47.512Z,103817.13
2023-02-06T16:45:24.783Z,103816.97
2023-02-06T16:47:56.787Z,103820.38
2023-02-06T16:50:29.063Z,103817.63
2023-02-06T16:53:03.245Z,103808.81
2023-02-06T16:55:35.286Z,103807.81
2023-02-06T16:58:18.137Z,103806.84
2023-02-06T17:00:51.171Z,103810.00
2023-02-06T17:03:23.407Z,103806.91
2023-02-06T17:05:55.354Z,103795.53
2023-02-06T17:08:27.597Z,103815.91
2023-02-06T17:10:59.579Z,103826.91
2023-02-06T17:13:31.549Z,103821.38
2023-02-06T17:16:03.880Z,103827.91
2023-02-06T17:18:35.856Z,103828.56
2023-02-06T17:21:07.910Z,103817.09
2023-02-06T17:23:40.477Z,103813.16
2023-02-06T17:26:20.084Z,103827.16
2023-02-06T17:28:52.143Z,103831.38
2023-02-06T17:31:24.313Z,103829.41
2023-02-06T17:33:56.516Z,103839.47
2023-02-06T17:36:33.209Z,103841.66
2023-02-06T17:39:05.761Z,103811.94
2023-02-06T17:41:37.893Z,103826.09
2023-02-06T17:44:12.836Z,103844.59
2023-02-06T17:46:49.821Z,103839.72
2023-02-06T17:49:21.790Z,103844.03
2023-02-06T17:51:54.557Z,103825.63
2023-02-06T17:54:26.580Z,103834.16
2023-02-06T17:56:58.647Z,103820.00
2023-02-06T17:59:30.716Z,103821.72
2023-02-06T18:02:02.935Z,103824.22
2023-02-06T18:04:35.001Z,103823.78
2023-02-06T18:07:07.675Z,103801.78
2023-02-06T18:09:41.942Z,103814.41
2023-02-06T18:12:15.586Z,103816.75
2023-02-06T18:14:49.707Z,103809.22
2023-02-06T18:17:21.994Z,103808.81
2023-02-06T18:19:53.924Z,103819.00
2023-02-06T18:22:26.602Z,103816.41
2023-02-06T18:25:01.017Z,103815.03
2023-02-06T18:27:33.434Z,103792.13
2023-02-06T18:30:06.702Z,103809.22
2023-02-06T18:32:39.293Z,103788.19
2023-02-06T18:35:12.183Z,103799.88
2023-02-06T18:37:44.248Z,103802.22
2023-02-06T18:40:17.054Z,103797.19
2023-02-06T18:42:54.117Z,103789.59
2023-02-06T18:45:31.242Z,103796.44
2023-02-06T18:48:06.221Z,103786.94
2023-02-06T18:50:42.241Z,103783.28
2023-02-06T18:53:14.280Z,103797.63
2023-02-06T18:55:46.313Z,103787.66
2023-02-06T18:58:18.331Z,103787.34
2023-02-06T19:00:50.346Z,103776.59
2023-02-06T19:03:22.340Z,103770.19
2023-02-06T19:05:54.284Z,103788.34
2023-02-06T19:08:28.952Z,103776.19
2023-02-06T19:11:00.920Z,103773.94
2023-02-06T19:13:34.232Z,103783.47
2023-02-06T19:16:19.205Z,103774.25
2023-02-06T19:18:51.134Z,103774.25
2023-02-06T19:21:25.639Z,103767.81
2023-02-06T19:23:59.994Z,103767.50
2023-02-06T19:26:33.130Z,103766.00
2023-02-06T19:29:05.622Z,103763.28
2023-02-06T19:31:40.546Z,103760.56
2023-02-06T19:34:12.621Z,103764.56
2023-02-06T19:36:44.609Z,103773.81
2023-02-06T19:39:16.581Z,103784.25
2023-02-06T19:41:48.580Z,103775.97
2023-02-06T19:44:20.690Z,103778.41
2023-02-06T19:46:52.611Z,103776.31
2023-02-06T19:49:26.224Z,103773.34
2023-02-06T19:51:58.525Z,103778.16
2023-02-06T19:54:30.531Z,103775.38
2023-02-06T19:57:02.690Z,103757.28
2023-02-06T19:59:34.662Z,103752.38
2023-02-06T20:02:07.136Z,103774.03
2023-02-06T20:04:39.910Z,103767.44
2023-02-06T20:07:12.280Z,103757.28
2023-02-06T20:09:44.265Z,103778.66
2023-02-06T20:12:16.270Z,103780.97
2023-02-06T20:14:48.308Z,103785.91
2023-02-06T20:17:20.239Z,103785.28
2023-02-06T20:19:52.489Z,103761.44
2023-02-06T20:22:24.738Z,103786.03
2023-02-06T20:24:56.705Z,103794.66
2023-02-06T20:27:28.888Z,103797.28
2023-02-06T20:30:00.888Z,103798.16
2023-02-06T20:32:33.180Z,103804.94
2023-02-06T20:35:05.612Z,103790.81
2023-02-06T20:37:37.540Z,103787.28
2023-02-06T20:40:13.301Z,103775.88
2023-02-06T20:42:45.322Z,103783.13
2023-02-06T20:45:17.404Z,103781.91
2023-02-06T20:47:49.426Z,103776.66
2023-02-06T20:50:21.395Z,103785.91
2023-02-06T20:52:53.338Z,103782.19
2023-02-06T20:55:25.780Z,103785.72
2023-02-06T20:57:57.900Z,103792.97
2023-02-06T21:00:30.556Z,103782.66
2023-02-06T21:03:02.516Z,103789.44
2023-02-06T21:05:34.943Z,103780.50
2023-02-06T21:08:08.086Z,103784.97
2023-02-06T21:10:40.082Z,103786.66
2023-02-06T21:13:12.068Z,103791.13
2023-02-06T21:15:51.361Z,103787.75
2023-02-06T21:18:27.019Z,103784.81
2023-02-06T21:21:09.470Z,103786.81
2023-02-06T21:23:43.408Z,103775.44
2023-02-06T21:26:17.936Z,103787.88
2023-02-06T21:28:50.592Z,103785.56
2023-02-06T21:31:36.032Z,103782.22
2023-02-06T21:34:22.562Z,103777.63
2023-02-06T21:36:54.686Z,103786.50
2023-02-06T21:39:28.165Z,103769.00
2023-02-06T21:42:01.625Z,103764.88
2023-02-06T21:44:34.042Z,103765.63
2023-02-06T21:47:06.257Z,103767.00
2023-02-06T21:49:38.295Z,103756.22
2023-02-06T21:52:13.026Z,103753.31
2023-02-06T21:54:45.128Z,103744.75
2023-02-06T21:57:17.391Z,103753.03
2023-02-06T21:59:49.403Z,103748.59
2023-02-06T22:02:21.388Z,103724.44
2023-02-06T22:04:54.646Z,103735.03
2023-02-06T22:07:26.594Z,103738.44
2023-02-06T22:09:58.577Z,103729.69
2023-02-06T22:12:30.554Z,103733.06
2023-02-06T22:15:02.601Z,103735.19
2023-02-06T22:17:34.849Z,103739.97
2023-02-06T22:20:07.460Z,103735.03
2023-02-06T22:22:41.121Z,103746.59
2023-02-06T22:25:13.080Z,103739.38
2023-02-06T22:27:45.008Z,103741.66
2023-02-06T22:30:17.296Z,103746.56
2023-02-06T22:32:49.248Z,103745.03
2023-02-06T22:35:21.549Z,103741.34
2023-02-06T22:37:53.535Z,103735.84
2023-02-06T22:40:26.034Z,103701.09
2023-02-06T22:42:57.965Z,103744.84
2023-02-06T22:45:30.132Z,103742.88
2023-02-06T22:48:02.045Z,103746.69
2023-02-06T22:50:36.753Z,103748.06
2023-02-06T22:53:29.438Z,103745.00
2023-02-06T22:56:21.653Z,103749.13
2023-02-06T22:59:12.840Z,103744.97
2023-02-06T23:01:58.902Z,103744.84
2023-02-06T23:04:38.264Z,103741.44
2023-02-06T23:07:10.495Z,103743.16
2023-02-06T23:09:42.523Z,103736.84
2023-02-06T23:12:16.250Z,103737.28
2023-02-06T23:14:48.278Z,103730.25
2023-02-06T23:17:20.262Z,103747.09
2023-02-06T23:19:52.193Z,103748.63
2023-02-06T23:22:24.210Z,103749.06
2023-02-06T23:24:56.815Z,103748.13
2023-02-06T23:27:29.307Z,103751.19
2023-02-06T23:30:01.322Z,103757.78
2023-02-06T23:32:33.219Z,103751.31
2023-02-06T23:35:05.482Z,103755.59
2023-02-06T23:37:37.518Z,103746.41
2023-02-06T23:40:10.385Z,103749.16
2023-02-06T23:42:42.445Z,103757.56
2023-02-06T23:45:14.413Z,103758.00
2023-02-06T23:47:46.775Z,103764.75
2023-02-06T23:50:19.351Z,103742.03
2023-02-06T23:52:51.415Z,103766.88
2023-02-06T23:55:27.973Z,103768.09
2023-02-06T23:57:59.950Z,103759.19
